Aviation Digital Data Service (ADDS)

Output produced by METARs form (1102 UTC 13 December 2017)
found at http://www.aviationweather.gov/adds/metars/
 
LHSM 131045Z 29007KT 9999 FEW010 BKN076 BKN083 04/02 Q1020 NOSIG
TAF LHSM 130815Z 1309/1318 28005KT 9999 SCT020 SCT070 
     TEMPO 1310/1318 CAVOK 
     BECMG 1314/1317 VRB02KT
       
LHBC 130845Z 29007KT 9999 -RA OVC083 04/03 Q1018
LHBP 131100Z 29008KT CAVOK 05/00 Q1018 NOSIG
TAF AMD LHBP 131000Z 1310/1406 30010KT CAVOK 
     BECMG 1311/1313 29005KT 
     BECMG 1313/1315 VRB03KT 
     BECMG 1323/1401 17009G20KT 
     TEMPO 1401/1406 BKN012
       
LHDC 131045Z 34006KT 9999 OVC033 04/01 Q1018 RERA NOSIG
TAF LHDC 130815Z 1309/1318 01008KT 9999 -RA SCT015 OVC025 
     TEMPO 1309/1310 7000 RA BKN006 OVC015 
     BECMG 1311/1314 32004KT 9999 NSW SCT015 BKN030
       
LHKE 131045Z 32008KT CAVOK 06/01 Q1018 NOSIG RMK BLU
TAF LHKE 130815Z 1309/1318 30008KT CAVOK 
     TEMPO 1311/1315 9999 SCT025 BKN100 
     BECMG 1315/1318 27004KT
       
LHPA 131045Z 34006KT 300V020 CAVOK 05/M01 Q1019 NOSIG RMK BLU
TAF LHPA 130515Z 1306/1406 VRB03KT 6000 NSC 
     BECMG 1306/1308 33005KT CAVOK 
     BECMG 1312/1315 18007KT 
     TEMPO 1321/1406 20013G25KT 
     PROB30 
     TEMPO 1402/1406 19020G31KT
       
LHPP 131045Z 23005KT 9999 -RA SCT010 OVC083 02/01 Q1020
TAF LHPP 130815Z 1309/1318 28005KT 9999 SCT020 BKN060 
     TEMPO 1309/1314 -RA SCT010 OVC040 
     BECMG 1314/1317 SCT030 SCT100
       
LHPR 131045Z 32008KT 290V350 9999 FEW026 BKN046 06/01 Q1019 RMK BLU
TAF LHPR 130815Z 1309/1318 30006KT CAVOK 
     BECMG 1312/1315 21005KT
       
LHSM 131045Z 29007KT 9999 FEW010 BKN076 BKN083 04/02 Q1020 NOSIG
TAF LHSM 130815Z 1309/1318 28005KT 9999 SCT020 SCT070 
     TEMPO 1310/1318 CAVOK 
     BECMG 1314/1317 VRB02KT
       
LHSN 131045Z 36004KT 6000 SCT005 OVC008 04/04 Q1018 RERA TEMPO 9999 BKN010 RMK GRN
TAF AMD LHSN 131005Z 1310/1318 33006KT 9999 BKN025 BKN083 
     TEMPO 1310/1315 BKN008 OVC020 
     BECMG 1312/1314 VRB03KT 
     BECMG 1316/1318 21005KT CAVOK
       
LHUD 131045Z 30008KT CAVOK 05/02 Q1019
LHDC 131045Z 34006KT 9999 OVC033 04/01 Q1018 RERA NOSIG
TAF LHDC 130815Z 1309/1318 01008KT 9999 -RA SCT015 OVC025 
     TEMPO 1309/1310 7000 RA BKN006 OVC015 
     BECMG 1311/1314 32004KT 9999 NSW SCT015 BKN030
       
LHBP 131100Z 29008KT CAVOK 05/00 Q1018 NOSIG
TAF AMD LHBP 131000Z 1310/1406 30010KT CAVOK 
     BECMG 1311/1313 29005KT 
     BECMG 1313/1315 VRB03KT 
     BECMG 1323/1401 17009G20KT 
     TEMPO 1401/1406 BKN012
       
LHKE 131045Z 32008KT CAVOK 06/01 Q1018 NOSIG RMK BLU
TAF LHKE 130815Z 1309/1318 30008KT CAVOK 
     TEMPO 1311/1315 9999 SCT025 BKN100 
     BECMG 1315/1318 27004KT
       
LHPA 131045Z 34006KT 300V020 CAVOK 05/M01 Q1019 NOSIG RMK BLU
TAF LHPA 130515Z 1306/1406 VRB03KT 6000 NSC 
     BECMG 1306/1308 33005KT CAVOK 
     BECMG 1312/1315 18007KT 
     TEMPO 1321/1406 20013G25KT 
     PROB30 
     TEMPO 1402/1406 19020G31KT
       
LHSN 131045Z 36004KT 6000 SCT005 OVC008 04/04 Q1018 RERA TEMPO 9999 BKN010 RMK GRN
TAF AMD LHSN 131005Z 1310/1318 33006KT 9999 BKN025 BKN083 
     TEMPO 1310/1315 BKN008 OVC020 
     BECMG 1312/1314 VRB03KT 
     BECMG 1316/1318 21005KT CAVOK